Cape Bari — V7HX2 — position and weather

sailwx.info

Track history (hours):
 
Tides and Currents Weather Stations Pressure Air Temp Water Temp Dewpoint Dewpoint Depression Visibility Wind Speed Wind Dir Waves Ship Positions

Cape Bari

Last reported at 2018-Feb-21 09:01 UTC. Time now 2018-Feb-21 09:09 UTC.
Position N 51°25' E 003°14'.

Length 283 m; draft 9 m.

Type: Tanker. MMSI: 538090174.

Date/timePositionNaut miles runAvg speedWind from/ knotsBaromVisibWave heightAir tempDewpointWater temp
2018-Feb-21 09:01N 51°25' E 003°14'817.0
2018-Feb-21 08:31N 51°25' E 003°27'612.5
2018-Feb-21 08:00N 51°26' E 003°37'4 8.7
2018-Feb-21 07:30N 51°24' E 003°43'0 0.7
2018-Feb-21 06:57N 51°24' E 003°44'0 0.0
2018-Feb-21 06:30N 51°24' E 003°44'0 0.5
2018-Feb-21 05:57N 51°24' E 003°44'0 0.2
2018-Feb-21 05:27N 51°24' E 003°44'0 0.0
2018-Feb-21 05:00N 51°24' E 003°44'0 0.1
2018-Feb-21 04:27N 51°24' E 003°44'0 0.0
2018-Feb-21 04:00N 51°24' E 003°44'0 0.0
2018-Feb-21 03:24N 51°24' E 003°44'0 0.0
2018-Feb-21 02:57N 51°24' E 003°44'0 0.0
2018-Feb-21 02:30N 51°24' E 003°44'0 0.0
2018-Feb-21 01:57N 51°24' E 003°44'0 0.1
2018-Feb-21 01:27N 51°24' E 003°44'0 0.0
2018-Feb-21 01:00N 51°24' E 003°44'0 0.1
2018-Feb-21 00:27N 51°24' E 003°44'0 0.2
2018-Feb-20 23:57N 51°24' E 003°44'0 0.3
2018-Feb-20 23:27N 51°24' E 003°44'0 0.2
2018-Feb-20 22:57N 51°24' E 003°44'0 0.1
2018-Feb-20 22:30N 51°24' E 003°44'0 0.0
2018-Feb-20 21:57N 51°24' E 003°44'0 0.0
2018-Feb-20 21:27N 51°24' E 003°44'0 0.0
2018-Feb-20 21:00N 51°24' E 003°44'0 0.0
2018-Feb-20 20:30N 51°24' E 003°44'0 0.0
2018-Feb-20 19:57N 51°24' E 003°44'0 0.0
2018-Feb-20 19:30N 51°24' E 003°44'0 0.0
2018-Feb-20 19:00N 51°24' E 003°44'0 0.0
2018-Feb-20 18:30N 51°24' E 003°44'0 0.4
2018-Feb-20 17:51N 51°24' E 003°44'0 0.2
2018-Feb-20 17:30N 51°24' E 003°44'0 0.1
2018-Feb-20 16:57N 51°24' E 003°44'0 0.0
2018-Feb-20 16:30N 51°24' E 003°44'0 0.0
2018-Feb-20 16:00N 51°24' E 003°44'0 0.0
2018-Feb-20 15:27N 51°24' E 003°44'0 0.0
2018-Feb-20 14:57N 51°24' E 003°44'0 0.1
2018-Feb-20 14:30N 51°24' E 003°45'0 0.0
2018-Feb-20 13:51N 51°24' E 003°45'0 0.0
2018-Feb-20 13:27N 51°24' E 003°45'0 0.0
2018-Feb-20 13:00N 51°24' E 003°45'0 0.1
2018-Feb-20 12:30N 51°24' E 003°44'0 0.5
2018-Feb-20 11:54N 51°24' E 003°44'0 0.2
2018-Feb-20 11:30N 51°24' E 003°44'0 0.2
2018-Feb-20 11:00N 51°24' E 003°44'2 4.2
2018-Feb-20 10:30N 51°26' E 003°41'510.8
2018-Feb-20 10:00N 51°25' E 003°33'612.3
2018-Feb-20 09:30N 51°24' E 003°23'611.5
2018-Feb-20 09:00N 51°25' E 003°14'612.4
2018-Feb-20 08:30N 51°24' E 003°04'612.4
2018-Feb-20 08:00N 51°22' E 002°55'612.5
2018-Feb-20 07:30N 51°22' E 002°45'4 8.4
2018-Feb-20 07:01N 51°22' E 002°38'3 4.9
2018-Feb-20 06:30N 51°22' E 002°34'3 6.7
2018-Feb-20 06:00N 51°22' E 002°29'4 8.6
2018-Feb-20 05:30N 51°20' E 002°22'5 9.2
2018-Feb-20 05:00N 51°17' E 002°17'5 9.1
2018-Feb-20 04:30N 51°15' E 002°10'612.7
2018-Feb-20 04:01N 51°13' E 002°01'713.1
2018-Feb-20 03:30N 51°10' E 001°52'612.9
2018-Feb-20 03:00N 51°05' E 001°44'713.7
2018-Feb-20 02:30N 51°00' E 001°38'713.2
2018-Feb-20 02:01N 50°56' E 001°30'713.2
2018-Feb-20 01:30N 50°49' E 001°26'712.1
2018-Feb-20 00:56N 50°43' E 001°22'2712.1
2018-Feb-19 22:42N 50°28' E 000°47'413.5
2018-Feb-19 22:24N 50°27' E 000°41'613.4
2018-Feb-19 21:58N 50°25' E 000°32'613.2
2018-Feb-19 21:30N 50°23' E 000°23'712.8
2018-Feb-19 20:57N 50°22' E 000°12'612.4
2018-Feb-19 20:30N 50°20' E 000°04'611.9
2018-Feb-19 20:00N 50°19' W 000°05'611.5
2018-Feb-19 19:30N 50°17' W 000°14'611.1
2018-Feb-19 19:00N 50°16' W 000°22'510.7
2018-Feb-19 18:30N 50°14' W 000°30'611.4
2018-Feb-19 18:00N 50°12' W 000°39'611.3
2018-Feb-19 17:30N 50°11' W 000°47'611.1
2018-Feb-19 17:00N 50°10' W 000°56'510.8
2018-Feb-19 16:30N 50°08' W 001°04'510.8
2018-Feb-19 16:01N 50°07' W 001°12'510.7
2018-Feb-19 15:31N 50°06' W 001°20'511.0
2018-Feb-19 15:01N 50°04' W 001°28'611.5
2018-Feb-19 14:30N 50°03' W 001°37'612.0
2018-Feb-19 14:01N 50°01' W 001°46'612.9
2018-Feb-19 13:30N 50°00' W 001°56'713.7
2018-Feb-19 13:00N 49°59' W 002°07'714.6
2018-Feb-19 12:30N 49°56' W 002°17'815.1
2018-Feb-19 11:58N 49°53' W 002°29'815.1
2018-Feb-19 11:27N 49°51' W 002°41'715.2
2018-Feb-19 11:00N 49°50' W 002°51'1015.3
2018-Feb-19 10:20N 49°45' W 003°05'515.1
2018-Feb-19 10:00N 49°42' W 003°11'815.1
2018-Feb-19 09:27N 49°38' W 003°22'4715.3
2018-Feb-19 06:24N 49°15' W 004°24'615.4
2018-Feb-19 06:00N 49°12' W 004°33'815.1
2018-Feb-19 05:28N 49°08' W 004°43'715.2
2018-Feb-19 04:59N 49°04' W 004°53'715.0
2018-Feb-19 04:30N 49°00' W 005°02'814.9
2018-Feb-19 04:00N 48°56' W 005°12'714.3
2018-Feb-19 03:30N 48°53' W 005°22'714.3
2018-Feb-19 03:00N 48°50' W 005°32'713.6
2018-Feb-19 02:28N 48°45' W 005°39'713.6
2018-Feb-19 01:58N 48°39' W 005°44'713.3
2018-Feb-19 01:26N 48°32' W 005°48'612.9
2018-Feb-19 00:56N 48°26' W 005°52'512.4
2018-Feb-19 00:29N 48°21' W 005°55'612.2
2018-Feb-18 23:59N 48°15' W 005°58'611.8
2018-Feb-18 23:30N 48°10' W 006°01'6 9.5
2018-Feb-18 22:52N 48°04' W 006°04'2211.6
2018-Feb-18 21:00N 47°44' W 006°15'  
2018-Feb-16 05:55N 43°52' W 006°18'511.3
2018-Feb-16 05:29N 43°51' W 006°11'611.6
2018-Feb-16 05:00N 43°51' W 006°03'911.7
2018-Feb-16 04:16N 43°50' W 005°51'311.6
2018-Feb-16 04:00N 43°49' W 005°47'611.5
2018-Feb-16 03:30N 43°48' W 005°39'611.3
2018-Feb-16 03:00N 43°47' W 005°32'611.1
2018-Feb-16 02:30N 43°46' W 005°24'611.5
2018-Feb-16 02:00N 43°46' W 005°16'511.0
2018-Feb-16 01:30N 43°46' W 005°09'611.2
2018-Feb-16 01:00N 43°45' W 005°01'5111.1
2018-Feb-15 20:23N 43°38' W 003°50'411.0
2018-Feb-15 20:00N 43°38' W 003°45'612.0
2018-Feb-15 19:30N 43°37' W 003°37'712.9
2018-Feb-15 18:59N 43°36' W 003°27'612.3
2018-Feb-15 18:30N 43°35' W 003°20'713.2
2018-Feb-15 18:00N 43°30' W 003°13'713.2
2018-Feb-15 17:30N 43°26' W 003°06'4 7.4
2018-Feb-15 17:00N 43°22' W 003°05'0 0.0
2018-Feb-15 03:42N 43°22' W 003°06'0 0.0
2018-Feb-15 01:06N 43°22' W 003°06'0 0.0
2018-Feb-15 00:54N 43°22' W 003°06'0 0.0
2018-Feb-15 00:30N 43°22' W 003°06'0 0.0
2018-Feb-15 00:00N 43°22' W 003°06'0 0.0
2018-Feb-14 23:27N 43°22' W 003°06'0 0.0
2018-Feb-14 22:54N 43°22' W 003°06'0 0.0
2018-Feb-14 22:27N 43°22' W 003°06'0 0.0
2018-Feb-14 21:57N 43°22' W 003°06'0 0.0
2018-Feb-14 21:00N 43°22' W 003°06'0 0.0
2018-Feb-14 19:36N 43°22' W 003°06'0 0.0
2018-Feb-14 19:18N 43°22' W 003°06'0 0.0
2018-Feb-14 17:51N 43°22' W 003°06'0 0.0
2018-Feb-14 17:30N 43°22' W 003°06'0 0.1
2018-Feb-14 17:00N 43°22' W 003°06'1 2.5
2018-Feb-14 16:30N 43°23' W 003°05'3 6.6
2018-Feb-14 16:00N 43°26' W 003°08'4 8.4
2018-Feb-14 15:31N 43°30' W 003°11'611.8
2018-Feb-14 15:00N 43°36' W 003°10'4 7.7
2018-Feb-14 14:30N 43°40' W 003°10'1 1.2
2018-Feb-14 14:00N 43°39' W 003°11'0 0.6
2018-Feb-14 13:30N 43°39' W 003°11'0 0.8
2018-Feb-14 12:59N 43°39' W 003°11'4 7.8
2018-Feb-14 12:29N 43°41' W 003°06'4 7.7
2018-Feb-14 12:00N 43°42' W 003°02'4 7.6
2018-Feb-14 11:29N 43°44' W 002°57'3 6.4
2018-Feb-14 10:59N 43°46' W 002°53'1 1.6
2018-Feb-14 10:30N 43°46' W 002°54'1 1.5
2018-Feb-14 10:00N 43°46' W 002°55'1 1.6
2018-Feb-14 09:29N 43°46' W 002°56'1 1.6
2018-Feb-14 09:00N 43°46' W 002°57'1 1.7
2018-Feb-14 08:30N 43°45' W 002°58'1 1.9
2018-Feb-14 07:59N 43°45' W 002°59'1 1.6
2018-Feb-14 07:30N 43°45' W 003°00'1 1.5
2018-Feb-14 07:00N 43°44' W 003°01'1 1.6
2018-Feb-14 06:30N 43°44' W 003°02'1 1.6
2018-Feb-14 06:00N 43°43' W 003°03'1 1.5
2018-Feb-14 05:30N 43°43' W 003°04'1 1.5
2018-Feb-14 05:00N 43°42' W 003°05'1 1.5
2018-Feb-14 04:30N 43°42' W 003°05'1 1.5
2018-Feb-14 04:00N 43°41' W 003°06'1 1.5
2018-Feb-14 03:30N 43°41' W 003°07'1 1.5
2018-Feb-14 02:59N 43°40' W 003°07'1 1.5
2018-Feb-14 02:30N 43°39' W 003°08'1 1.3
2018-Feb-14 02:00N 43°39' W 003°09'1 1.3
2018-Feb-14 01:30N 43°38' W 003°09'1 1.1
2018-Feb-14 01:00N 43°38' W 003°10'1 1.1
2018-Feb-14 00:30N 43°38' W 003°10'1 1.2
2018-Feb-13 23:59N 43°37' W 003°11'1 1.3
2018-Feb-13 23:30N 43°37' W 003°12'1 1.4
2018-Feb-13 23:00N 43°37' W 003°13'1 1.3
2018-Feb-13 22:30N 43°37' W 003°14'1 1.3
2018-Feb-13 22:00N 43°37' W 003°15'1 1.6
2018-Feb-13 21:30N 43°36' W 003°16'1 1.7
2018-Feb-13 21:00N 43°36' W 003°17'3 6.0
2018-Feb-13 20:30N 43°39' W 003°20'510.1
2018-Feb-13 20:00N 43°41' W 003°26'1411.8
2018-Feb-13 18:48N 43°44' W 003°45'4411.7
2018-Feb-13 15:01N 43°49' W 004°46'111.6
2018-Feb-13 14:58N 43°49' W 004°46'711.9
2018-Feb-13 14:24N 43°50' W 004°56'712.2
2018-Feb-13 13:50N 43°51' W 005°05'412.0
2018-Feb-13 13:30N 43°51' W 005°11'612.2
2018-Feb-13 13:00N 43°52' W 005°19'712.6
2018-Feb-13 12:25N 43°53' W 005°29'612.6
2018-Feb-13 11:56N 43°53' W 005°38'612.7
2018-Feb-13 11:29N 43°54' W 005°46'712.8
2018-Feb-13 10:55N 43°55' W 005°56'  
Track history (hours):
 
Tides and Currents Weather Stations Pressure Air Temp Water Temp Dewpoint Dewpoint Depression Visibility Wind Speed Wind Dir Waves Ship Positions

Cape Bari

Last reported at 2018-Feb-21 09:01 UTC. Time now 2018-Feb-21 09:09 UTC.
Position N 51°25' E 003°14'.

Length 283 m; draft 9 m.

Type: Tanker. MMSI: 538090174.

Date/timePositionNaut miles runAvg speedWind from/ knotsBaromVisibWave heightAir tempDewpointWater temp
2018-Feb-21 09:01N 51°25' E 003°14'817.0
2018-Feb-21 08:31N 51°25' E 003°27'612.5
2018-Feb-21 08:00N 51°26' E 003°37'4 8.7
2018-Feb-21 07:30N 51°24' E 003°43'0 0.7
2018-Feb-21 06:57N 51°24' E 003°44'0 0.0
2018-Feb-21 06:30N 51°24' E 003°44'0 0.5
2018-Feb-21 05:57N 51°24' E 003°44'0 0.2
2018-Feb-21 05:27N 51°24' E 003°44'0 0.0
2018-Feb-21 05:00N 51°24' E 003°44'0 0.1
2018-Feb-21 04:27N 51°24' E 003°44'0 0.0
2018-Feb-21 04:00N 51°24' E 003°44'0 0.0
2018-Feb-21 03:24N 51°24' E 003°44'0 0.0
2018-Feb-21 02:57N 51°24' E 003°44'0 0.0
2018-Feb-21 02:30N 51°24' E 003°44'0 0.0
2018-Feb-21 01:57N 51°24' E 003°44'0 0.1
2018-Feb-21 01:27N 51°24' E 003°44'0 0.0
2018-Feb-21 01:00N 51°24' E 003°44'0 0.1
2018-Feb-21 00:27N 51°24' E 003°44'0 0.2
2018-Feb-20 23:57N 51°24' E 003°44'0 0.3
2018-Feb-20 23:27N 51°24' E 003°44'0 0.2
2018-Feb-20 22:57N 51°24' E 003°44'0 0.1
2018-Feb-20 22:30N 51°24' E 003°44'0 0.0
2018-Feb-20 21:57N 51°24' E 003°44'0 0.0
2018-Feb-20 21:27N 51°24' E 003°44'0 0.0
2018-Feb-20 21:00N 51°24' E 003°44'0 0.0
2018-Feb-20 20:30N 51°24' E 003°44'0 0.0
2018-Feb-20 19:57N 51°24' E 003°44'0 0.0
2018-Feb-20 19:30N 51°24' E 003°44'0 0.0
2018-Feb-20 19:00N 51°24' E 003°44'0 0.0
2018-Feb-20 18:30N 51°24' E 003°44'0 0.4
2018-Feb-20 17:51N 51°24' E 003°44'0 0.2
2018-Feb-20 17:30N 51°24' E 003°44'0 0.1
2018-Feb-20 16:57N 51°24' E 003°44'0 0.0
2018-Feb-20 16:30N 51°24' E 003°44'0 0.0
2018-Feb-20 16:00N 51°24' E 003°44'0 0.0
2018-Feb-20 15:27N 51°24' E 003°44'0 0.0
2018-Feb-20 14:57N 51°24' E 003°44'0 0.1
2018-Feb-20 14:30N 51°24' E 003°45'0 0.0
2018-Feb-20 13:51N 51°24' E 003°45'0 0.0
2018-Feb-20 13:27N 51°24' E 003°45'0 0.0
2018-Feb-20 13:00N 51°24' E 003°45'0 0.1
2018-Feb-20 12:30N 51°24' E 003°44'0 0.5
2018-Feb-20 11:54N 51°24' E 003°44'0 0.2
2018-Feb-20 11:30N 51°24' E 003°44'0 0.2
2018-Feb-20 11:00N 51°24' E 003°44'2 4.2
2018-Feb-20 10:30N 51°26' E 003°41'510.8
2018-Feb-20 10:00N 51°25' E 003°33'612.3
2018-Feb-20 09:30N 51°24' E 003°23'611.5
2018-Feb-20 09:00N 51°25' E 003°14'612.4
2018-Feb-20 08:30N 51°24' E 003°04'612.4
2018-Feb-20 08:00N 51°22' E 002°55'612.5
2018-Feb-20 07:30N 51°22' E 002°45'4 8.4
2018-Feb-20 07:01N 51°22' E 002°38'3 4.9
2018-Feb-20 06:30N 51°22' E 002°34'3 6.7
2018-Feb-20 06:00N 51°22' E 002°29'4 8.6
2018-Feb-20 05:30N 51°20' E 002°22'5 9.2
2018-Feb-20 05:00N 51°17' E 002°17'5 9.1
2018-Feb-20 04:30N 51°15' E 002°10'612.7
2018-Feb-20 04:01N 51°13' E 002°01'713.1
2018-Feb-20 03:30N 51°10' E 001°52'612.9
2018-Feb-20 03:00N 51°05' E 001°44'713.7
2018-Feb-20 02:30N 51°00' E 001°38'713.2
2018-Feb-20 02:01N 50°56' E 001°30'713.2
2018-Feb-20 01:30N 50°49' E 001°26'712.1
2018-Feb-20 00:56N 50°43' E 001°22'2712.1
2018-Feb-19 22:42N 50°28' E 000°47'413.5
2018-Feb-19 22:24N 50°27' E 000°41'613.4
2018-Feb-19 21:58N 50°25' E 000°32'613.2
2018-Feb-19 21:30N 50°23' E 000°23'712.8
2018-Feb-19 20:57N 50°22' E 000°12'612.4
2018-Feb-19 20:30N 50°20' E 000°04'611.9
2018-Feb-19 20:00N 50°19' W 000°05'611.5
2018-Feb-19 19:30N 50°17' W 000°14'611.1
2018-Feb-19 19:00N 50°16' W 000°22'510.7
2018-Feb-19 18:30N 50°14' W 000°30'611.4
2018-Feb-19 18:00N 50°12' W 000°39'611.3
2018-Feb-19 17:30N 50°11' W 000°47'611.1
2018-Feb-19 17:00N 50°10' W 000°56'510.8
2018-Feb-19 16:30N 50°08' W 001°04'510.8
2018-Feb-19 16:01N 50°07' W 001°12'510.7
2018-Feb-19 15:31N 50°06' W 001°20'511.0
2018-Feb-19 15:01N 50°04' W 001°28'611.5
2018-Feb-19 14:30N 50°03' W 001°37'612.0
2018-Feb-19 14:01N 50°01' W 001°46'612.9
2018-Feb-19 13:30N 50°00' W 001°56'713.7
2018-Feb-19 13:00N 49°59' W 002°07'714.6
2018-Feb-19 12:30N 49°56' W 002°17'815.1
2018-Feb-19 11:58N 49°53' W 002°29'815.1
2018-Feb-19 11:27N 49°51' W 002°41'715.2
2018-Feb-19 11:00N 49°50' W 002°51'1015.3
2018-Feb-19 10:20N 49°45' W 003°05'515.1
2018-Feb-19 10:00N 49°42' W 003°11'815.1
2018-Feb-19 09:27N 49°38' W 003°22'4715.3
2018-Feb-19 06:24N 49°15' W 004°24'615.4
2018-Feb-19 06:00N 49°12' W 004°33'815.1
2018-Feb-19 05:28N 49°08' W 004°43'715.2
2018-Feb-19 04:59N 49°04' W 004°53'715.0
2018-Feb-19 04:30N 49°00' W 005°02'814.9
2018-Feb-19 04:00N 48°56' W 005°12'714.3
2018-Feb-19 03:30N 48°53' W 005°22'714.3
2018-Feb-19 03:00N 48°50' W 005°32'713.6
2018-Feb-19 02:28N 48°45' W 005°39'713.6
2018-Feb-19 01:58N 48°39' W 005°44'713.3
2018-Feb-19 01:26N 48°32' W 005°48'612.9
2018-Feb-19 00:56N 48°26' W 005°52'512.4
2018-Feb-19 00:29N 48°21' W 005°55'612.2
2018-Feb-18 23:59N 48°15' W 005°58'611.8
2018-Feb-18 23:30N 48°10' W 006°01'6 9.5
2018-Feb-18 22:52N 48°04' W 006°04'2211.6
2018-Feb-18 21:00N 47°44' W 006°15'  
2018-Feb-16 05:55N 43°52' W 006°18'511.3
2018-Feb-16 05:29N 43°51' W 006°11'611.6
2018-Feb-16 05:00N 43°51' W 006°03'911.7
2018-Feb-16 04:16N 43°50' W 005°51'311.6
2018-Feb-16 04:00N 43°49' W 005°47'611.5
2018-Feb-16 03:30N 43°48' W 005°39'611.3
2018-Feb-16 03:00N 43°47' W 005°32'611.1
2018-Feb-16 02:30N 43°46' W 005°24'611.5
2018-Feb-16 02:00N 43°46' W 005°16'511.0
2018-Feb-16 01:30N 43°46' W 005°09'611.2
2018-Feb-16 01:00N 43°45' W 005°01'5111.1
2018-Feb-15 20:23N 43°38' W 003°50'411.0
2018-Feb-15 20:00N 43°38' W 003°45'612.0
2018-Feb-15 19:30N 43°37' W 003°37'712.9
2018-Feb-15 18:59N 43°36' W 003°27'612.3
2018-Feb-15 18:30N 43°35' W 003°20'713.2
2018-Feb-15 18:00N 43°30' W 003°13'713.2
2018-Feb-15 17:30N 43°26' W 003°06'4 7.4
2018-Feb-15 17:00N 43°22' W 003°05'0 0.0
2018-Feb-15 03:42N 43°22' W 003°06'0 0.0
2018-Feb-15 01:06N 43°22' W 003°06'0 0.0
2018-Feb-15 00:54N 43°22' W 003°06'0 0.0
2018-Feb-15 00:30N 43°22' W 003°06'0 0.0
2018-Feb-15 00:00N 43°22' W 003°06'0 0.0
2018-Feb-14 23:27N 43°22' W 003°06'0 0.0
2018-Feb-14 22:54N 43°22' W 003°06'0 0.0
2018-Feb-14 22:27N 43°22' W 003°06'0 0.0
2018-Feb-14 21:57N 43°22' W 003°06'0 0.0
2018-Feb-14 21:00N 43°22' W 003°06'0 0.0
2018-Feb-14 19:36N 43°22' W 003°06'0 0.0
2018-Feb-14 19:18N 43°22' W 003°06'0 0.0
2018-Feb-14 17:51N 43°22' W 003°06'0 0.0
2018-Feb-14 17:30N 43°22' W 003°06'0 0.1
2018-Feb-14 17:00N 43°22' W 003°06'1 2.5
2018-Feb-14 16:30N 43°23' W 003°05'3 6.6
2018-Feb-14 16:00N 43°26' W 003°08'4 8.4
2018-Feb-14 15:31N 43°30' W 003°11'611.8
2018-Feb-14 15:00N 43°36' W 003°10'4 7.7
2018-Feb-14 14:30N 43°40' W 003°10'1 1.2
2018-Feb-14 14:00N 43°39' W 003°11'0 0.6
2018-Feb-14 13:30N 43°39' W 003°11'0 0.8
2018-Feb-14 12:59N 43°39' W 003°11'4 7.8
2018-Feb-14 12:29N 43°41' W 003°06'4 7.7
2018-Feb-14 12:00N 43°42' W 003°02'4 7.6
2018-Feb-14 11:29N 43°44' W 002°57'3 6.4
2018-Feb-14 10:59N 43°46' W 002°53'1 1.6
2018-Feb-14 10:30N 43°46' W 002°54'1 1.5
2018-Feb-14 10:00N 43°46' W 002°55'1 1.6
2018-Feb-14 09:29N 43°46' W 002°56'1 1.6
2018-Feb-14 09:00N 43°46' W 002°57'1 1.7
2018-Feb-14 08:30N 43°45' W 002°58'1 1.9
2018-Feb-14 07:59N 43°45' W 002°59'1 1.6
2018-Feb-14 07:30N 43°45' W 003°00'1 1.5
2018-Feb-14 07:00N 43°44' W 003°01'1 1.6
2018-Feb-14 06:30N 43°44' W 003°02'1 1.6
2018-Feb-14 06:00N 43°43' W 003°03'1 1.5
2018-Feb-14 05:30N 43°43' W 003°04'1 1.5
2018-Feb-14 05:00N 43°42' W 003°05'1 1.5
2018-Feb-14 04:30N 43°42' W 003°05'1 1.5
2018-Feb-14 04:00N 43°41' W 003°06'1 1.5
2018-Feb-14 03:30N 43°41' W 003°07'1 1.5
2018-Feb-14 02:59N 43°40' W 003°07'1 1.5
2018-Feb-14 02:30N 43°39' W 003°08'1 1.3
2018-Feb-14 02:00N 43°39' W 003°09'1 1.3
2018-Feb-14 01:30N 43°38' W 003°09'1 1.1
2018-Feb-14 01:00N 43°38' W 003°10'1 1.1
2018-Feb-14 00:30N 43°38' W 003°10'1 1.2
2018-Feb-13 23:59N 43°37' W 003°11'1 1.3
2018-Feb-13 23:30N 43°37' W 003°12'1 1.4
2018-Feb-13 23:00N 43°37' W 003°13'1 1.3
2018-Feb-13 22:30N 43°37' W 003°14'1 1.3
2018-Feb-13 22:00N 43°37' W 003°15'1 1.6
2018-Feb-13 21:30N 43°36' W 003°16'1 1.7
2018-Feb-13 21:00N 43°36' W 003°17'3 6.0
2018-Feb-13 20:30N 43°39' W 003°20'510.1
2018-Feb-13 20:00N 43°41' W 003°26'1411.8
2018-Feb-13 18:48N 43°44' W 003°45'4411.7
2018-Feb-13 15:01N 43°49' W 004°46'111.6
2018-Feb-13 14:58N 43°49' W 004°46'711.9
2018-Feb-13 14:24N 43°50' W 004°56'712.2
2018-Feb-13 13:50N 43°51' W 005°05'412.0
2018-Feb-13 13:30N 43°51' W 005°11'612.2
2018-Feb-13 13:00N 43°52' W 005°19'712.6
2018-Feb-13 12:25N 43°53' W 005°29'612.6
2018-Feb-13 11:56N 43°53' W 005°38'612.7
2018-Feb-13 11:29N 43°54' W 005°46'712.8
2018-Feb-13 10:55N 43°55' W 005°56'  

Dump ship's entire track history